Time;durP1;ratioP1;P1;durP2;ratioP2;P2;SDS_P1;SDS_P2;PMS_P1;PMS_P2;Temp;Humidity;BMP_temperature;BMP_pressure;BME280_temperature;BME280_humidity;BME280_pressure;Samples;Min_cycle;Max_cycle;Signal;HPM_P1;HPM_P2
2020/12/06 00:00:28;;;;;;;24.85;13.73;;;8.70;83.30;;;;;;5124919;28;19927;-79
2020/12/06 00:02:54;;;;;;;;;;;8.80;83.40;;;;;;5125935;28;20027;-78
2020/12/06 00:05:19;;;;;;;24.30;14.88;;;8.80;83.20;;;;;;5117235;28;19908;-78
2020/12/06 00:07:45;;;;;;;;;;;8.70;83.20;;;;;;5119792;28;20540;-80
2020/12/06 00:10:17;;;;;;;25.10;14.55;;;8.70;83.30;;;;;;5121280;28;19915;-77
2020/12/06 00:12:44;;;;;;;25.30;14.65;;;8.60;83.30;;;;;;5114585;28;20020;-78
2020/12/06 00:15:10;;;;;;;29.27;14.35;;;8.60;83.50;;;;;;5116940;28;20023;-77
2020/12/06 00:17:36;;;;;;;22.42;14.52;;;8.50;83.50;;;;;;5116074;28;20373;-77
2020/12/06 00:20:11;;;;;;;;;;;8.50;83.80;;;;;;5114382;28;20525;-78
2020/12/06 00:22:38;;;;;;;25.42;15.05;;;8.40;84.10;;;;;;5112874;28;19935;-78
2020/12/06 00:25:04;;;;;;;25.48;14.07;;;8.40;84.20;;;;;;5114044;27;20096;-78
2020/12/06 00:27:34;;;;;;;26.92;14.98;;;8.40;84.40;;;;;;5113423;28;20492;-78
2020/12/06 00:30:00;;;;;;;23.80;15.07;;;8.40;84.20;;;;;;5117774;28;20043;-77
2020/12/06 00:32:26;;;;;;;22.73;13.77;;;8.40;84.30;;;;;;5116708;28;20293;-77
2020/12/06 00:34:51;;;;;;;;;;;8.40;84.30;;;;;;5103694;28;20051;-77
2020/12/06 00:37:17;;;;;;;29.60;15.02;;;8.50;84.20;;;;;;5112295;28;19978;-78
2020/12/06 00:39:43;;;;;;;;;;;8.50;84.00;;;;;;5111278;28;20047;-77
2020/12/06 00:42:10;;;;;;;23.58;14.38;;;8.50;83.80;;;;;;5118071;28;19887;-79
2020/12/06 00:44:35;;;;;;;23.55;13.63;;;8.50;83.80;;;;;;5124839;28;20043;-79
2020/12/06 00:47:01;;;;;;;;;;;8.50;83.80;;;;;;5122772;28;20031;-77
2020/12/06 00:49:27;;;;;;;21.05;13.25;;;8.50;83.70;;;;;;5116342;28;20445;-78
2020/12/06 00:51:52;;;;;;;;;;;8.60;83.90;;;;;;5114209;28;20400;-77
2020/12/06 00:54:18;;;;;;;25.65;14.02;;;8.60;83.70;;;;;;5121746;28;19959;-78
2020/12/06 00:56:44;;;;;;;;;;;8.60;83.60;;;;;;5127952;28;20065;-76
2020/12/06 00:59:09;;;;;;;31.38;14.63;;;8.60;83.30;;;;;;5111919;28;19908;-77
2020/12/06 01:01:38;;;;;;;;;;;8.70;83.20;;;;;;5113057;28;20027;-78
2020/12/06 01:04:04;;;;;;;22.55;14.43;;;8.60;83.00;;;;;;5112717;28;19946;-77
2020/12/06 01:06:29;;;;;;;;;;;8.60;83.10;;;;;;5113589;28;20035;-79
2020/12/06 01:08:55;;;;;;;24.98;13.77;;;8.60;83.00;;;;;;5115332;28;19912;-79
2020/12/06 01:11:21;;;;;;;;;;;8.60;83.30;;;;;;5117281;28;20035;-78
2020/12/06 01:13:46;;;;;;;24.20;14.00;;;8.60;83.20;;;;;;5115276;28;20282;-77
2020/12/06 01:16:13;;;;;;;;;;;8.60;83.00;;;;;;5123263;28;20002;-79
2020/12/06 01:18:38;;;;;;;20.00;12.88;;;8.60;82.90;;;;;;5131712;28;19954;-79
2020/12/06 01:21:04;;;;;;;;;;;8.70;82.90;;;;;;5131732;28;20027;-79
2020/12/06 01:23:29;;;;;;;19.83;13.60;;;8.70;82.70;;;;;;5123530;28;20375;-79
2020/12/06 01:25:55;;;;;;;;;;;8.70;82.60;;;;;;5122540;28;20544;-79
2020/12/06 01:28:20;;;;;;;20.80;13.50;;;8.70;82.60;;;;;;5119312;28;19951;-78
2020/12/06 01:30:46;;;;;;;;;;;8.70;82.80;;;;;;5129502;28;20024;-79
2020/12/06 01:33:12;;;;;;;26.40;13.73;;;8.70;82.50;;;;;;5130194;28;19904;-79
2020/12/06 01:35:37;;;;;;;;;;;8.70;82.30;;;;;;5118108;28;20635;-78
2020/12/06 01:38:03;;;;;;;23.70;12.73;;;8.70;82.50;;;;;;5124801;28;19990;-79
2020/12/06 01:40:29;;;;;;;;;;;8.60;82.50;;;;;;5126395;28;20031;-77
2020/12/06 01:42:54;;;;;;;21.90;12.15;;;8.60;82.60;;;;;;5122583;28;19922;-77
2020/12/06 01:45:20;;;;;;;;;;;8.70;82.40;;;;;;5122533;28;20028;-75
2020/12/06 01:47:46;;;;;;;20.48;14.10;;;8.70;82.20;;;;;;5127596;28;19916;-75
2020/12/06 01:50:12;;;;;;;19.17;11.88;;;8.70;82.30;;;;;;5131786;28;20032;-76
2020/12/06 01:52:39;;;;;;;;;;;8.70;82.00;;;;;;5122544;28;20387;-75
2020/12/06 01:55:07;;;;;;;17.17;11.35;;;8.80;81.90;;;;;;5119362;28;19903;-76
2020/12/06 01:57:32;;;;;;;41.83;22.48;;;8.80;81.50;;;;;;5117802;28;20055;-76
2020/12/06 01:59:58;;;;;;;;;;;8.80;81.70;;;;;;5122194;28;20028;-77
2020/12/06 02:02:23;;;;;;;20.33;12.75;;;8.80;81.50;;;;;;5121073;28;20387;-75
2020/12/06 02:04:51;;;;;;;;;;;8.80;81.20;;;;;;5122157;28;20026;-76
2020/12/06 02:07:17;;;;;;;19.13;12.55;;;8.80;81.10;;;;;;5125800;28;19911;-75
2020/12/06 02:09:44;;;;;;;;;;;8.70;81.30;;;;;;5122960;28;20039;-75
2020/12/06 02:12:10;;;;;;;29.75;17.25;;;8.70;81.80;;;;;;5124603;28;19908;-77
2020/12/06 02:14:35;;;;;;;;;;;8.70;81.70;;;;;;5126409;28;20057;-76
2020/12/06 02:17:01;;;;;;;19.58;11.85;;;8.80;81.50;;;;;;5124931;28;19915;-76
2020/12/06 02:19:27;;;;;;;22.80;13.57;;;8.70;81.30;;;;;;5124119;28;20083;-78
2020/12/06 02:21:53;;;;;;;;;;;8.70;81.50;;;;;;5124445;28;20027;-77
2020/12/06 02:24:19;;;;;;;18.83;11.23;;;8.70;81.40;;;;;;5124586;28;19915;-77
2020/12/06 02:26:50;;;;;;;21.52;13.18;;;8.70;81.50;;;;;;5123779;28;20031;-76
2020/12/06 02:29:17;;;;;;;18.02;11.95;;;8.60;81.70;;;;;;5122741;28;20088;-77
2020/12/06 02:31:43;;;;;;;20.08;12.27;;;8.60;81.80;;;;;;5120585;28;20107;-77
2020/12/06 02:34:09;;;;;;;;;;;8.60;81.60;;;;;;5122877;28;20052;-77
2020/12/06 02:36:35;;;;;;;20.10;13.52;;;8.60;81.60;;;;;;5129269;28;19951;-77
2020/12/06 02:39:00;;;;;;;;;;;8.60;81.70;;;;;;5133447;28;20024;-78
2020/12/06 02:41:39;;;;;;;18.52;12.15;;;8.50;81.90;;;;;;5133724;28;19895;-77
2020/12/06 02:44:06;;;;;;;22.02;12.15;;;8.50;82.10;;;;;;5133622;28;20027;-79
2020/12/06 02:46:32;;;;;;;19.88;12.30;;;8.50;82.10;;;;;;5133868;28;20024;-78
2020/12/06 02:48:58;;;;;;;;;;;8.50;82.00;;;;;;5134006;28;20043;-78
2020/12/06 02:51:24;;;;;;;24.50;12.60;;;8.60;82.60;;;;;;5132740;28;19904;-77
2020/12/06 02:53:50;;;;;;;18.15;11.05;;;8.60;81.80;;;;;;5133078;28;20047;-77
2020/12/06 02:56:16;;;;;;;19.85;11.45;;;8.60;82.10;;;;;;5130843;28;20027;-77
2020/12/06 02:58:41;;;;;;;;;;;8.70;81.90;;;;;;5128622;28;20050;-77
2020/12/06 03:01:07;;;;;;;18.88;11.73;;;8.70;81.20;;;;;;5131500;28;19908;-77
2020/12/06 03:03:33;;;;;;;;;;;8.60;81.20;;;;;;5131782;28;20042;-77
2020/12/06 03:05:59;;;;;;;17.13;11.35;;;8.60;81.30;;;;;;5131510;28;19904;-76
2020/12/06 03:08:24;;;;;;;;;;;8.60;81.40;;;;;;5130211;27;20077;-77
2020/12/06 03:10:50;;;;;;;20.52;12.43;;;8.60;81.30;;;;;;5122251;28;19904;-76
2020/12/06 03:13:15;;;;;;;;;;;8.50;81.40;;;;;;5123350;28;20027;-77
2020/12/06 03:15:41;;;;;;;16.75;10.40;;;8.50;81.90;;;;;;5126391;28;19903;-76
2020/12/06 03:18:06;;;;;;;;;;;8.50;82.10;;;;;;5118585;28;20035;-76
2020/12/06 03:20:32;;;;;;;15.13;10.25;;;8.50;81.60;;;;;;5117802;28;19904;-76
2020/12/06 03:22:59;;;;;;;;;;;8.50;81.50;;;;;;5118995;28;20114;-76
2020/12/06 03:25:25;;;;;;;15.10;9.80;;;8.60;81.80;;;;;;5118322;28;19915;-77
2020/12/06 03:27:50;;;;;;;;;;;8.60;82.10;;;;;;5118466;28;20265;-77
2020/12/06 03:30:16;;;;;;;17.08;11.00;;;8.60;81.20;;;;;;5118344;28;19968;-76
2020/12/06 03:32:41;;;;;;;;;;;8.60;81.20;;;;;;5118405;28;20111;-76
2020/12/06 03:35:07;;;;;;;13.10;8.60;;;8.60;80.80;;;;;;5119331;28;19911;-76
2020/12/06 03:37:33;;;;;;;;;;;8.70;81.50;;;;;;5117628;28;20166;-76
2020/12/06 03:39:58;;;;;;;17.52;10.77;;;8.60;80.80;;;;;;5119604;28;20325;-76
2020/12/06 03:42:24;;;;;;;;;;;8.60;81.10;;;;;;5121114;28;20032;-75
2020/12/06 03:44:49;;;;;;;19.20;11.18;;;8.50;81.20;;;;;;5118200;28;19904;-76
2020/12/06 03:47:17;;;;;;;;;;;8.50;81.50;;;;;;5119031;28;20488;-76
2020/12/06 03:49:43;;;;;;;;;;;8.40;81.70;;;;;;5118927;28;19924;-76
2020/12/06 03:52:09;;;;;;;20.73;11.45;;;8.30;81.90;;;;;;5119003;28;19936;-76
2020/12/06 03:54:34;;;;;;;;;;;8.30;82.40;;;;;;5119674;28;20381;-76
2020/12/06 03:57:00;;;;;;;25.33;11.73;;;8.30;82.20;;;;;;5117900;28;19903;-77
2020/12/06 03:59:25;;;;;;;;;;;8.30;82.20;;;;;;5118868;28;20027;-76
2020/12/06 04:01:51;;;;;;;20.42;10.73;;;8.20;82.70;;;;;;5118379;28;19910;-76
2020/12/06 04:04:16;;;;;;;;;;;8.30;83.00;;;;;;5120764;28;20039;-76
2020/12/06 04:06:42;;;;;;;14.55;9.52;;;8.30;82.80;;;;;;5115591;28;20412;-76
2020/12/06 04:09:08;;;;;;;;;;;8.20;82.70;;;;;;5115521;28;20113;-76
2020/12/06 04:11:33;;;;;;;18.65;10.70;;;8.20;82.70;;;;;;5116890;28;19904;-76
2020/12/06 04:13:59;;;;;;;;;;;8.20;82.60;;;;;;5116602;28;20118;-75
2020/12/06 04:16:24;;;;;;;18.60;10.80;;;8.20;82.60;;;;;;5115820;28;19971;-75
2020/12/06 04:18:50;;;;;;;;;;;8.20;82.60;;;;;;5115955;28;20062;-76
2020/12/06 04:21:16;;;;;;;20.05;12.02;;;8.20;82.60;;;;;;5116712;28;19950;-77
2020/12/06 04:23:41;;;;;;;;;;;8.10;82.60;;;;;;5124201;27;20034;-76
2020/12/06 04:26:07;;;;;;;19.25;11.40;;;8.10;82.80;;;;;;5123263;28;19904;-77
2020/12/06 04:28:32;;;;;;;;;;;8.00;82.80;;;;;;5122878;28;20073;-77
2020/12/06 04:30:58;;;;;;;16.27;10.18;;;8.00;82.90;;;;;;5119996;28;19907;-77
2020/12/06 04:33:24;;;;;;;;;;;8.10;83.00;;;;;;5121913;28;20016;-79
2020/12/06 04:35:50;;;;;;;16.35;9.50;;;8.10;82.90;;;;;;5122411;28;19903;-77
2020/12/06 04:38:15;;;;;;;;;;;8.10;82.70;;;;;;5124821;28;20027;-77
2020/12/06 04:40:41;;;;;;;18.45;10.88;;;8.20;82.70;;;;;;5116337;28;19908;-76
2020/12/06 04:43:07;;;;;;;;;;;8.20;82.60;;;;;;5115480;28;20027;-77
2020/12/06 04:45:33;;;;;;;16.85;10.27;;;8.20;82.50;;;;;;5114763;28;19911;-76
2020/12/06 04:48:07;;;;;;;18.02;10.27;;;8.30;82.60;;;;;;5116231;28;20501;-76
2020/12/06 04:50:35;;;;;;;15.25;9.63;;;8.40;82.30;;;;;;5119718;28;20436;-75
2020/12/06 04:53:02;;;;;;;19.60;11.05;;;8.40;82.00;;;;;;5117820;28;20034;-78
2020/12/06 04:55:33;;;;;;;18.08;8.90;;;8.40;81.80;;;;;;5119963;28;20027;-75
2020/12/06 04:58:00;;;;;;;16.48;8.80;;;8.40;81.60;;;;;;5118151;28;20035;-76
2020/12/06 05:00:37;;;;;;;19.90;9.45;;;8.50;81.50;;;;;;5121336;28;20538;-77
2020/12/06 05:03:07;;;;;;;15.18;9.55;;;8.40;81.30;;;;;;5114731;28;20028;-75
2020/12/06 05:05:40;;;;;;;15.55;9.20;;;8.40;81.30;;;;;;5114737;28;20503;-76
2020/12/06 05:08:09;;;;;;;16.10;9.45;;;8.40;81.40;;;;;;5119579;28;20024;-77
2020/12/06 05:10:39;;;;;;;17.45;10.15;;;8.40;81.30;;;;;;5134216;28;20027;-79
2020/12/06 05:13:06;;;;;;;16.77;10.48;;;8.40;81.30;;;;;;5128923;28;20096;-78
2020/12/06 05:15:32;;;;;;;20.60;10.02;;;8.40;81.40;;;;;;5137325;28;20020;-77
2020/12/06 05:17:58;;;;;;;;;;;8.30;81.40;;;;;;5130723;28;20062;-77
2020/12/06 05:20:24;;;;;;;23.50;12.20;;;8.30;81.70;;;;;;5122781;28;19915;-76
2020/12/06 05:22:51;;;;;;;17.38;9.95;;;8.30;81.70;;;;;;5128485;28;20027;-77
2020/12/06 05:25:16;;;;;;;;;;;8.20;81.70;;;;;;5123174;28;20479;-76
2020/12/06 05:27:43;;;;;;;20.58;12.52;;;8.30;81.80;;;;;;5118332;28;19914;-76
2020/12/06 05:30:09;;;;;;;14.88;9.55;;;8.30;81.70;;;;;;5118924;28;20035;-76
2020/12/06 05:32:36;;;;;;;20.00;12.32;;;8.30;81.60;;;;;;5120480;28;20016;-76
2020/12/06 05:35:02;;;;;;;20.08;11.48;;;8.30;81.80;;;;;;5121063;28;20492;-76
2020/12/06 05:37:29;;;;;;;21.20;10.18;;;8.30;81.70;;;;;;5120312;28;20035;-77
2020/12/06 05:40:12;;;;;;;15.38;9.38;;;8.30;81.60;;;;;;5120462;28;20110;-77
2020/12/06 05:42:41;;;;;;;14.52;9.35;;;8.30;81.50;;;;;;5118679;28;20051;-75
2020/12/06 05:45:07;;;;;;;18.42;11.27;;;8.30;81.50;;;;;;5121427;28;20031;-77
2020/12/06 05:47:33;;;;;;;17.00;10.75;;;8.30;81.70;;;;;;5120395;28;20085;-77
2020/12/06 05:49:59;;;;;;;;;;;8.30;81.70;;;;;;5118842;28;20031;-76
2020/12/06 05:52:28;;;;;;;42.25;24.45;;;8.30;81.60;;;;;;5119877;28;19950;-76
2020/12/06 05:54:56;;;;;;;34.38;19.15;;;8.40;81.50;;;;;;5118957;28;20092;-76
2020/12/06 05:57:26;;;;;;;20.50;12.02;;;8.30;81.40;;;;;;5120503;28;20551;-75
2020/12/06 05:59:55;;;;;;;17.85;10.70;;;8.30;81.30;;;;;;5122111;28;20084;-76
2020/12/06 06:02:22;;;;;;;19.00;11.00;;;8.40;81.40;;;;;;5119601;28;20083;-78
2020/12/06 06:04:49;;;;;;;19.38;10.77;;;8.40;81.10;;;;;;5119825;28;20441;-76
2020/12/06 06:07:20;;;;;;;15.13;9.95;;;8.40;80.90;;;;;;5119505;28;20034;-75
2020/12/06 06:09:49;;;;;;;20.75;12.18;;;8.50;80.70;;;;;;5121264;28;20027;-76
2020/12/06 06:12:24;;;;;;;26.15;16.92;;;8.50;80.30;;;;;;5123218;28;20027;-79
2020/12/06 06:14:52;;;;;;;17.20;12.45;;;8.40;80.20;;;;;;5124138;28;20020;-77
2020/12/06 06:17:18;;;;;;;17.20;10.40;;;8.40;80.40;;;;;;5125930;28;20015;-77
2020/12/06 06:19:44;;;;;;;12.63;8.90;;;8.30;80.50;;;;;;5125428;28;20030;-77
2020/12/06 06:22:15;;;;;;;14.57;8.85;;;8.40;80.70;;;;;;5124964;28;20031;-77
2020/12/06 06:24:41;;;;;;;15.73;8.93;;;8.40;80.50;;;;;;5125237;28;20399;-77
2020/12/06 06:27:07;;;;;;;23.15;8.48;;;8.40;80.30;;;;;;5124436;28;20036;-76
2020/12/06 06:29:35;;;;;;;17.50;9.43;;;8.30;80.30;;;;;;5122921;28;20032;-76
2020/12/06 06:32:01;;;;;;;13.48;8.60;;;8.30;80.50;;;;;;5122925;28;20134;-77
2020/12/06 06:34:29;;;;;;;;;;;8.30;80.60;;;;;;5128542;28;20039;-78
2020/12/06 06:36:55;;;;;;;14.35;8.68;;;8.20;80.70;;;;;;5124248;28;19903;-77
2020/12/06 06:39:21;;;;;;;;;;;8.20;80.60;;;;;;5119599;28;20023;-77
2020/12/06 06:42:01;;;;;;;14.20;8.15;;;8.30;80.70;;;;;;5119364;28;19912;-76
2020/12/06 06:44:27;;;;;;;16.98;10.40;;;8.20;80.80;;;;;;5118820;28;20026;-76
2020/12/06 06:47:02;;;;;;;21.55;13.45;;;8.20;80.70;;;;;;5118135;28;20085;-75
2020/12/06 06:49:27;;;;;;;19.70;11.55;;;8.30;80.70;;;;;;5119023;27;20062;-76
2020/12/06 06:51:53;;;;;;;;;;;8.30;80.50;;;;;;5120785;28;20027;-76
2020/12/06 06:54:30;;;;;;;14.07;9.00;;;8.30;80.40;;;;;;5120369;28;19919;-78
2020/12/06 06:56:57;;;;;;;17.17;10.55;;;8.40;80.30;;;;;;5124121;28;20019;-77
2020/12/06 06:59:53;;;;;;;18.60;10.25;;;8.40;80.00;;;;;;5124567;28;20357;-77
2020/12/06 07:02:38;;;;;;;18.08;12.45;;;8.50;79.60;;;;;;5114350;28;20032;-78
2020/12/06 07:05:12;;;;;;;16.27;10.65;;;8.70;79.00;;;;;;5122927;28;20085;-77
2020/12/06 07:07:49;;;;;;;13.93;9.10;;;8.90;77.60;;;;;;5120377;28;20027;-77
2020/12/06 07:10:20;;;;;;;13.13;8.35;;;9.20;76.40;;;;;;5119440;28;20031;-77
2020/12/06 07:12:45;;;;;;;14.30;9.02;;;9.30;75.80;;;;;;5119000;28;20049;-76
2020/12/06 07:15:11;;;;;;;;;;;9.40;75.10;;;;;;5124748;28;20073;-79
2020/12/06 07:17:38;;;;;;;15.70;10.27;;;9.70;73.90;;;;;;5132886;28;19917;-81
2020/12/06 07:20:06;;;;;;;12.10;8.48;;;9.90;72.70;;;;;;5136658;28;20441;-80
2020/12/06 07:22:32;;;;;;;14.00;8.50;;;10.10;72.00;;;;;;5135553;28;20014;-79
2020/12/06 07:24:57;;;;;;;;;;;10.20;71.30;;;;;;5122636;28;20027;-79
2020/12/06 07:27:23;;;;;;;13.57;8.10;;;10.20;71.40;;;;;;5117524;28;20337;-79
2020/12/06 07:29:49;;;;;;;;;;;10.20;71.30;;;;;;5120111;28;20032;-79
2020/12/06 07:32:15;;;;;;;11.30;7.40;;;10.10;71.40;;;;;;5125307;28;20336;-79
2020/12/06 07:34:40;;;;;;;;;;;10.10;71.40;;;;;;5124551;28;20510;-78
2020/12/06 07:37:07;;;;;;;11.60;7.38;;;10.10;71.20;;;;;;5119168;28;19911;-79
2020/12/06 07:39:43;;;;;;;11.15;6.93;;;10.10;71.10;;;;;;5120909;28;20543;-79
2020/12/06 07:42:10;;;;;;;18.42;10.80;;;10.10;71.30;;;;;;5128600;28;20046;-80
2020/12/06 07:44:49;;;;;;;11.50;6.53;;;10.20;71.10;;;;;;5133294;28;20030;-79
2020/12/06 07:47:15;;;;;;;13.50;7.53;;;10.30;70.20;;;;;;5126753;28;20059;-79
2020/12/06 07:49:46;;;;;;;10.75;7.00;;;10.60;69.50;;;;;;5124409;28;20056;-78
2020/12/06 07:52:16;;;;;;;11.65;6.78;;;10.80;68.10;;;;;;5125950;28;20016;-78
2020/12/06 07:54:51;;;;;;;10.55;6.47;;;11.00;67.60;;;;;;5124065;28;20700;-79
2020/12/06 07:57:22;;;;;;;12.52;7.20;;;11.20;66.80;;;;;;5127719;28;20059;-79
2020/12/06 07:59:49;;;;;;;12.15;7.72;;;11.30;65.90;;;;;;5124537;28;20023;-77
2020/12/06 08:02:15;;;;;;;14.38;7.70;;;11.50;65.10;;;;;;5118827;28;20479;-78
2020/12/06 08:04:41;;;;;;;16.63;12.30;;;11.60;64.60;;;;;;5124656;28;20054;-77
2020/12/06 08:07:10;;;;;;;;;;;11.80;64.30;;;;;;5119340;28;20032;-76
2020/12/06 08:09:39;;;;;;;17.38;7.72;;;11.90;62.70;;;;;;5124587;28;19919;-77
2020/12/06 08:12:06;;;;;;;8.55;5.80;;;12.10;62.80;;;;;;5120532;28;20034;-77
2020/12/06 08:14:32;;;;;;;10.10;5.53;;;12.20;62.00;;;;;;5112769;28;20042;-78
2020/12/06 08:17:01;;;;;;;;;;;12.30;61.80;;;;;;5113910;28;20028;-77
2020/12/06 08:19:28;;;;;;;8.20;5.72;;;12.20;61.20;;;;;;5116818;28;19918;-78
2020/12/06 08:22:00;;;;;;;12.02;5.88;;;12.20;61.50;;;;;;5115912;28;20022;-76
2020/12/06 08:24:28;;;;;;;9.90;5.88;;;12.40;61.20;;;;;;5112701;28;20457;-77
2020/12/06 08:26:55;;;;;;;10.80;6.22;;;12.50;60.20;;;;;;5109535;28;20092;-76
2020/12/06 08:29:42;;;;;;;11.32;7.13;;;12.70;60.00;;;;;;5115852;28;20043;-77
2020/12/06 08:32:09;;;;;;;18.20;10.68;;;12.80;59.80;;;;;;5114332;28;20023;-77
2020/12/06 08:34:36;;;;;;;10.10;6.63;;;13.00;59.90;;;;;;5116046;28;20509;-77
2020/12/06 08:37:19;;;;;;;8.52;6.05;;;13.20;58.00;;;;;;5118300;28;20024;-76
2020/12/06 08:39:46;;;;;;;7.63;4.93;;;13.20;58.10;;;;;;5131633;28;20102;-79
2020/12/06 08:42:16;;;;;;;15.25;5.75;;;13.20;58.20;;;;;;5123694;28;20028;-80
2020/12/06 08:44:53;;;;;;;10.57;5.05;;;13.40;57.90;;;;;;5121446;28;20394;-78
2020/12/06 08:47:19;;;;;;;10.05;6.15;;;13.50;57.70;;;;;;5121892;28;20035;-79
2020/12/06 08:49:45;;;;;;;9.50;5.65;;;13.60;57.10;;;;;;5124928;28;20043;-80
2020/12/06 08:52:21;;;;;;;8.95;6.13;;;13.60;56.90;;;;;;5123419;28;20024;-78
2020/12/06 08:54:48;;;;;;;8.20;5.55;;;13.60;56.60;;;;;;5123556;28;20027;-80
2020/12/06 08:57:14;;;;;;;11.00;5.93;;;13.40;57.10;;;;;;5119683;28;20103;-80
2020/12/06 08:59:41;;;;;;;10.65;6.57;;;13.30;57.20;;;;;;5122423;28;20035;-80
2020/12/06 09:02:08;;;;;;;8.73;5.25;;;13.30;57.80;;;;;;5123352;28;20503;-79
2020/12/06 09:04:35;;;;;;;10.77;6.68;;;13.20;58.00;;;;;;5122112;28;20455;-80
2020/12/06 09:07:02;;;;;;;8.93;5.38;;;13.20;58.40;;;;;;5123367;28;20083;-79
2020/12/06 09:09:28;;;;;;;9.45;5.85;;;13.30;57.80;;;;;;5122268;28;20122;-79
2020/12/06 09:11:55;;;;;;;9.38;5.35;;;13.30;58.20;;;;;;5122015;28;20047;-79
2020/12/06 09:14:21;;;;;;;9.55;5.43;;;13.30;58.20;;;;;;5122820;28;20519;-78
2020/12/06 09:16:46;;;;;;;9.55;6.03;;;13.20;57.50;;;;;;5122544;28;20047;-79
2020/12/06 09:19:12;;;;;;;14.05;9.02;;;13.00;58.50;;;;;;5122201;28;20016;-80
2020/12/06 09:21:38;;;;;;;12.38;8.23;;;12.70;59.40;;;;;;5121449;28;20023;-77
2020/12/06 09:24:04;;;;;;;10.88;6.68;;;12.40;60.00;;;;;;5115672;28;20020;-77
2020/12/06 09:26:29;;;;;;;;;;;12.30;60.90;;;;;;5117669;28;20088;-77
2020/12/06 09:28:55;;;;;;;10.23;6.35;;;12.10;61.50;;;;;;5118871;28;19918;-76
2020/12/06 09:31:24;;;;;;;13.43;6.05;;;12.00;62.30;;;;;;5117905;28;20507;-77
2020/12/06 09:33:51;;;;;;;12.38;8.20;;;11.90;62.60;;;;;;5121245;28;20092;-77
2020/12/06 09:36:17;;;;;;;11.30;6.50;;;11.80;63.20;;;;;;5121272;28;20028;-76
2020/12/06 09:38:42;;;;;;;;;;;11.80;63.90;;;;;;5120352;28;20031;-76
2020/12/06 09:41:12;;;;;;;12.50;7.82;;;11.70;63.60;;;;;;5120734;28;19904;-76
2020/12/06 09:43:47;;;;;;;13.07;6.78;;;11.60;63.60;;;;;;5121613;28;20042;-80
2020/12/06 09:46:14;;;;;;;15.88;6.35;;;11.60;64.50;;;;;;5124220;28;20050;-78
2020/12/06 09:48:40;;;;;;;13.40;5.95;;;11.50;64.40;;;;;;5119448;28;20100;-78
2020/12/06 09:51:07;;;;;;;8.38;4.97;;;11.50;64.50;;;;;;5117385;28;20041;-79
2020/12/06 09:53:33;;;;;;;9.70;6.07;;;11.40;64.50;;;;;;5115443;28;20023;-76
2020/12/06 09:55:59;;;;;;;;;;;11.50;64.60;;;;;;5117053;28;20042;-77
2020/12/06 09:58:25;;;;;;;11.85;6.18;;;11.50;64.60;;;;;;5118285;28;19949;-77
2020/12/06 10:00:51;;;;;;;;;;;11.50;65.30;;;;;;5117416;28;20024;-77
2020/12/06 10:03:16;;;;;;;10.70;6.55;;;11.60;65.10;;;;;;5112442;28;19903;-76
2020/12/06 10:05:42;;;;;;;;;;;11.60;64.40;;;;;;5111217;28;20057;-76
2020/12/06 10:08:07;;;;;;;9.55;6.05;;;11.60;64.70;;;;;;5113671;28;19903;-76
2020/12/06 10:10:33;;;;;;;;;;;11.50;65.00;;;;;;5117376;28;20048;-76
2020/12/06 10:12:58;;;;;;;16.25;6.40;;;11.60;64.70;;;;;;5116630;28;20371;-75
2020/12/06 10:15:24;;;;;;;;;;;11.50;65.10;;;;;;5119461;28;20027;-79
2020/12/06 10:17:49;;;;;;;11.20;5.65;;;11.50;65.00;;;;;;5121829;28;19903;-78
2020/12/06 10:20:18;;;;;;;;;;;11.50;65.40;;;;;;5129195;28;20024;-78
2020/12/06 10:22:44;;;;;;;15.07;5.82;;;11.60;65.20;;;;;;5128016;28;19904;-78
2020/12/06 10:25:10;;;;;;;;;;;11.60;65.10;;;;;;5125783;28;20024;-79
2020/12/06 10:27:35;;;;;;;14.95;8.65;;;11.60;65.30;;;;;;5125068;28;19911;-78
2020/12/06 10:30:02;;;;;;;;;;;11.60;65.00;;;;;;5120881;28;20039;-79
2020/12/06 10:32:28;;;;;;;11.57;6.60;;;11.60;64.70;;;;;;5123265;28;19925;-79
2020/12/06 10:34:53;;;;;;;;;;;11.60;64.80;;;;;;5125089;28;20071;-77
2020/12/06 10:37:20;;;;;;;15.50;7.30;;;11.60;64.50;;;;;;5127291;28;19904;-79
2020/12/06 10:39:45;;;;;;;10.52;6.35;;;11.60;64.60;;;;;;5126090;28;20030;-78
2020/12/06 10:42:11;;;;;;;;;;;11.60;64.80;;;;;;5122811;28;20031;-78
2020/12/06 10:44:36;;;;;;;6.53;4.28;;;11.70;64.10;;;;;;5123308;28;19966;-76
2020/12/06 10:47:02;;;;;;;;;;;11.70;63.70;;;;;;5121942;28;20650;-78
2020/12/06 10:49:28;;;;;;;8.15;4.95;;;11.70;64.50;;;;;;5125050;28;19978;-79
2020/12/06 10:51:53;;;;;;;;;;;11.70;64.70;;;;;;5127861;28;20023;-78
2020/12/06 10:54:19;;;;;;;12.57;8.05;;;11.80;64.80;;;;;;5120082;28;19907;-79
2020/12/06 10:56:44;;;;;;;;;;;11.80;64.40;;;;;;5122673;28;20030;-78
2020/12/06 10:59:10;;;;;;;16.42;8.35;;;11.80;64.20;;;;;;5124407;28;19986;-78
2020/12/06 11:01:36;;;;;;;;;;;11.80;64.50;;;;;;5127937;28;20020;-79
2020/12/06 11:04:05;;;;;;;10.07;5.40;;;11.80;64.90;;;;;;5129858;28;19907;-78
2020/12/06 11:06:31;;;;;;;15.52;7.68;;;11.80;64.70;;;;;;5122286;28;20011;-80
2020/12/06 11:08:57;;;;;;;13.38;8.23;;;11.80;64.60;;;;;;5129146;28;20514;-78
2020/12/06 11:11:23;;;;;;;;;;;11.80;64.50;;;;;;5126853;28;20039;-78
2020/12/06 11:13:49;;;;;;;17.52;10.23;;;11.80;64.80;;;;;;5128442;28;19939;-79
2020/12/06 11:16:17;;;;;;;21.45;13.57;;;11.80;65.00;;;;;;5130829;28;20019;-79
2020/12/06 11:18:43;;;;;;;11.48;4.88;;;11.90;64.90;;;;;;5122902;28;20093;-77
2020/12/06 11:21:09;;;;;;;16.58;10.82;;;11.90;65.00;;;;;;5125024;28;20016;-79
2020/12/06 11:23:35;;;;;;;;;;;12.00;65.00;;;;;;5124668;28;20034;-79
2020/12/06 11:26:01;;;;;;;12.40;8.30;;;11.90;64.10;;;;;;5126869;28;19904;-79
2020/12/06 11:28:27;;;;;;;;;;;11.90;64.30;;;;;;5123599;28;20028;-79
2020/12/06 11:30:53;;;;;;;9.52;6.25;;;11.90;65.10;;;;;;5122337;28;19930;-79
2020/12/06 11:33:19;;;;;;;;;;;11.90;65.00;;;;;;5126789;28;20384;-77
2020/12/06 11:35:46;;;;;;;11.13;7.20;;;11.90;64.90;;;;;;5122449;28;20368;-78
2020/12/06 11:38:12;;;;;;;10.40;4.95;;;11.90;64.90;;;;;;5124049;28;20028;-79
2020/12/06 11:40:37;;;;;;;;;;;11.90;65.00;;;;;;5125169;28;20055;-78
2020/12/06 11:43:03;;;;;;;10.02;5.65;;;11.90;64.80;;;;;;5122566;28;19903;-77
2020/12/06 11:45:29;;;;;;;;;;;11.90;64.80;;;;;;5123669;28;20333;-77
2020/12/06 11:47:54;;;;;;;9.07;5.55;;;11.80;65.30;;;;;;5125401;28;19908;-79
2020/12/06 11:50:20;;;;;;;;;;;11.70;65.70;;;;;;5120047;28;20035;-78
2020/12/06 11:52:46;;;;;;;35.28;20.17;;;11.80;65.60;;;;;;5122200;28;19943;-79
2020/12/06 11:55:11;;;;;;;;;;;11.80;65.50;;;;;;5121215;28;20089;-78
2020/12/06 11:57:38;;;;;;;10.20;6.90;;;11.80;65.70;;;;;;5122531;28;19903;-79
2020/12/06 12:00:07;;;;;;;12.82;7.57;;;11.70;65.70;;;;;;5121411;28;20412;-78
2020/12/06 12:02:33;;;;;;;10.10;6.50;;;11.70;65.70;;;;;;5122028;28;20070;-79
2020/12/06 12:04:59;;;;;;;;;;;11.70;66.30;;;;;;5124301;28;20019;-78
2020/12/06 12:07:25;;;;;;;16.30;6.75;;;11.60;66.50;;;;;;5123452;28;19911;-78
2020/12/06 12:09:51;;;;;;;;;;;11.60;66.70;;;;;;5123551;28;20059;-78
2020/12/06 12:12:17;;;;;;;11.40;5.93;;;11.50;66.90;;;;;;5120866;28;19904;-79
2020/12/06 12:14:42;;;;;;;;;;;11.50;67.30;;;;;;5114768;28;20091;-79
2020/12/06 12:17:08;;;;;;;17.27;9.50;;;11.40;67.60;;;;;;5100476;28;19904;-78
2020/12/06 12:19:34;;;;;;;;;;;11.40;67.90;;;;;;5101063;28;20031;-79
2020/12/06 12:22:00;;;;;;;10.93;7.32;;;11.30;68.10;;;;;;5099459;28;19904;-78
2020/12/06 12:24:25;;;;;;;;;;;11.30;68.10;;;;;;5101177;28;20099;-79
2020/12/06 12:26:55;;;;;;;19.33;9.95;;;11.30;68.20;;;;;;5100725;28;19932;-79
2020/12/06 12:29:22;;;;;;;16.67;6.63;;;11.30;68.50;;;;;;5098892;28;20107;-78
2020/12/06 12:31:48;;;;;;;14.43;6.50;;;11.30;68.50;;;;;;5098952;28;20028;-79
2020/12/06 12:34:13;;;;;;;;;;;11.30;68.60;;;;;;5100078;28;20458;-79
2020/12/06 12:36:44;;;;;;;16.48;9.63;;;11.30;68.70;;;;;;5099208;28;19908;-80
2020/12/06 12:39:10;;;;;;;13.75;7.80;;;11.30;69.10;;;;;;5100301;28;20043;-79
2020/12/06 12:41:36;;;;;;;15.73;8.88;;;11.40;68.80;;;;;;5099731;28;20031;-78
2020/12/06 12:44:03;;;;;;;;;;;11.40;68.90;;;;;;5101254;28;20388;-78
2020/12/06 12:46:34;;;;;;;34.38;17.33;;;11.40;68.60;;;;;;5100434;28;19904;-78
2020/12/06 12:49:00;;;;;;;15.02;8.93;;;11.40;68.70;;;;;;5104284;28;20151;-78
2020/12/06 12:51:28;;;;;;;12.02;7.65;;;11.40;68.60;;;;;;5107103;28;20076;-79
2020/12/06 12:53:54;;;;;;;;;;;11.50;68.70;;;;;;5109271;28;20104;-79
2020/12/06 12:56:20;;;;;;;15.02;9.23;;;11.50;69.00;;;;;;5110787;28;19908;-79
2020/12/06 12:58:46;;;;;;;16.98;8.48;;;11.50;68.80;;;;;;5119636;28;20030;-78
2020/12/06 13:01:12;;;;;;;;;;;11.50;68.80;;;;;;5116944;28;20031;-78
2020/12/06 13:03:38;;;;;;;11.48;7.88;;;11.50;68.80;;;;;;5119477;28;20409;-79
2020/12/06 13:06:03;;;;;;;;;;;11.50;68.80;;;;;;5117787;28;20032;-79